Time;durP1;ratioP1;P1;durP2;ratioP2;P2;SDS_P1;SDS_P2;PMS_P1;PMS_P2;Temp;Humidity;BMP_temperature;BMP_pressure;BME280_temperature;BME280_humidity;BME280_pressure;Samples;Min_cycle;Max_cycle;Signal;HPM_P1;HPM_P2
2021/07/14 00:00:13;;;;;;;16.88;9.51;;;;;;;26.05;54.79;99374.65;376284;105;1960671;-74
2021/07/14 00:01:36;;;;;;;15.09;10.40;;;;;;;26.05;54.80;99377.42;373536;107;1960880;-73
2021/07/14 00:02:49;;;;;;;15.19;10.25;;;;;;;26.16;54.95;99369.66;395144;103;1984670;-74
2021/07/14 00:03:55;;;;;;;14.24;9.77;;;;;;;26.03;55.08;99374.14;331682;105;2635861;-74
2021/07/14 00:05:06;;;;;;;17.97;11.33;;;;;;;26.02;55.05;99370.56;369991;105;1960807;-75
2021/07/14 00:06:25;;;;;;;16.74;12.28;;;;;;;26.15;55.00;99366.09;394773;101;1984769;-73
2021/07/14 00:07:30;;;;;;;18.88;13.04;;;;;;;26.03;54.94;99366.65;363190;107;2931991;-73
2021/07/14 00:08:42;;;;;;;18.34;12.27;;;;;;;26.16;55.02;99369.66;387021;104;1985992;-73
2021/07/14 00:09:48;;;;;;;18.26;12.86;;;;;;;26.04;55.17;99370.26;373407;107;1961976;-73
2021/07/14 00:11:12;;;;;;;17.79;12.83;;;;;;;26.05;54.96;99375.46;374587;107;1961972;-73
2021/07/14 00:12:26;;;;;;;19.33;14.96;;;;;;;26.16;55.06;99369.66;379220;108;2073014;-72
2021/07/14 00:15:14;;;;;;;18.73;14.92;;;;;;;26.13;55.15;99367.53;382971;106;1986030;-74
2021/07/14 00:22:10;;;;;;;24.92;17.34;;;;;;;26.06;55.13;99365.20;379152;106;2978002;-74
2021/07/14 00:23:16;;;;;;;28.59;22.21;;;;;;;25.95;55.09;99366.60;364642;109;1963036;-73
2021/07/14 00:24:28;;;;;;;28.69;20.56;;;;;;;26.05;55.15;99367.16;379104;106;2837944;-71
2021/07/14 00:25:33;;;;;;;31.54;22.46;;;;;;;25.93;55.28;99368.86;364443;109;1961976;-73
2021/07/14 00:26:57;;;;;;;29.33;21.33;;;;;;;25.91;55.24;99360.89;354495;114;1961965;-73
2021/07/14 00:28:09;;;;;;;27.46;19.78;;;;;;;26.02;55.29;99370.56;378524;110;1985985;-73
2021/07/14 00:29:15;;;;;;;24.94;18.19;;;;;;;25.95;55.15;99364.64;350772;110;2929900;-72
2021/07/14 00:30:28;;;;;;;29.47;18.76;;;;;;;26.12;54.97;99368.65;383008;106;2071931;-73
2021/07/14 00:31:33;;;;;;;18.46;14.26;;;;;;;26.01;54.80;99368.94;365670;109;1962073;-73
2021/07/14 00:32:46;;;;;;;17.63;12.44;;;;;;;26.13;54.60;99378.61;395568;104;1985866;-73
2021/07/14 00:33:52;;;;;;;17.48;12.08;;;;;;;25.97;54.53;99376.22;359132;106;2834016;-73
2021/07/14 00:35:15;;;;;;;16.06;11.22;;;;;;;25.94;54.52;99378.81;376192;107;1961942;-73
2021/07/14 00:36:28;;;;;;;21.32;12.02;;;;;;;26.02;54.57;99375.28;392225;104;1986968;-73
2021/07/14 00:37:35;;;;;;;14.41;11.19;;;;;;;25.90;54.55;99373.08;374119;107;1961972;-73
2021/07/14 00:38:41;;;;;;;14.27;10.21;;;;;;;25.92;54.48;99378.31;366219;109;1963058;-72
2021/07/14 00:41:05;;;;;;;15.36;11.09;;;;;;;26.00;54.45;99372.82;395556;104;1986057;-74
2021/07/14 00:42:11;;;;;;;16.49;11.28;;;;;;;25.87;54.46;99382.82;360218;106;2842950;-73
2021/07/14 00:43:21;;;;;;;16.08;10.57;;;;;;;25.84;54.54;99380.69;311870;107;2327043;-73
2021/07/14 00:44:27;;;;;;;17.41;10.80;;;;;;;25.83;54.69;99380.98;328707;107;2825347;-73
2021/07/14 00:45:39;;;;;;;15.63;10.64;;;;;;;25.93;54.74;99379.93;398316;104;1961981;-74
2021/07/14 00:46:47;;;;;;;14.03;10.27;;;;;;;25.81;54.61;99386.83;378593;105;1970096;-74
2021/07/14 00:48:01;;;;;;;20.08;11.38;;;;;;;25.88;54.68;99383.66;389032;106;1985866;-74
2021/07/14 00:49:10;;;;;;;19.86;10.80;;;;;;;25.74;54.73;99380.90;367303;110;1962007;-74
2021/07/14 00:50:36;;;;;;;14.09;10.37;;;;;;;25.71;54.79;99381.53;320825;113;2141945;-73
2021/07/14 00:51:48;;;;;;;15.22;9.76;;;;;;;25.78;54.83;99375.58;387691;106;1971896;-73
2021/07/14 00:52:54;;;;;;;15.44;9.98;;;;;;;25.66;54.85;99381.66;369754;109;1961895;-74
2021/07/14 00:54:07;;;;;;;12.86;9.36;;;;;;;25.76;54.86;99375.87;356781;104;2860835;-73
2021/07/14 00:55:12;;;;;;;13.22;9.85;;;;;;;25.61;54.95;99376.23;353860;105;1960811;-73
2021/07/14 00:56:38;;;;;;;14.01;9.79;;;;;;;25.59;55.06;99376.57;369088;105;1960787;-74
2021/07/14 00:57:50;;;;;;;11.40;8.64;;;;;;;25.69;55.13;99378.25;395289;101;1984809;-73
2021/07/14 00:58:57;;;;;;;12.89;9.19;;;;;;;25.58;55.10;99380.45;378039;103;1960812;-72
2021/07/14 01:00:28;;;;;;;12.66;9.18;;;;;;;25.65;55.22;99377.27;402715;99;2888775;-73
2021/07/14 01:01:35;;;;;;;13.66;9.43;;;;;;;25.53;55.32;99377.80;343821;102;2815868;-73
2021/07/14 01:02:58;;;;;;;12.23;9.02;;;;;;;25.50;55.42;99374.85;390445;101;1960798;-74
2021/07/14 01:04:13;;;;;;;13.01;9.05;;;;;;;25.61;55.51;99379.82;340716;104;2299039;-74
2021/07/14 01:05:22;;;;;;;12.11;8.72;;;;;;;25.51;55.43;99379.24;372087;107;1967802;-74
2021/07/14 01:06:58;;;;;;;12.41;8.83;;;;;;;25.59;55.47;99376.57;397797;104;1984871;-74
2021/07/14 01:08:13;;;;;;;12.09;9.21;;;;;;;25.48;55.58;99377.92;378463;105;1965034;-74
2021/07/14 01:09:22;;;;;;;13.27;8.92;;;;;;;25.49;55.59;99370.46;379860;106;1964792;-73
2021/07/14 01:10:42;;;;;;;12.32;8.96;;;;;;;25.62;55.48;99364.06;395539;104;1986945;-73
2021/07/14 01:11:52;;;;;;;12.87;8.70;;;;;;;25.48;55.57;99374.34;334772;107;2864036;-73
2021/07/14 01:13:08;;;;;;;13.18;8.79;;;;;;;25.53;55.54;99375.03;376783;107;1962858;-72
2021/07/14 01:14:24;;;;;;;12.68;8.80;;;;;;;25.68;55.35;99373.86;379673;104;1987048;-73
2021/07/14 01:15:44;;;;;;;12.88;8.67;;;;;;;25.56;55.41;99365.30;373479;107;1962017;-74
2021/07/14 01:17:02;;;;;;;13.92;8.96;;;;;;;25.65;55.36;99369.78;356376;104;2145995;-73
2021/07/14 01:18:24;;;;;;;13.22;9.66;;;;;;;25.53;55.43;99376.98;373787;106;1962015;-73
2021/07/14 01:19:54;;;;;;;11.96;8.29;;;;;;;25.52;55.49;99373.41;323233;107;2230045;-72
2021/07/14 01:21:16;;;;;;;11.38;8.47;;;;;;;25.64;55.60;99370.08;388523;106;1989962;-74
2021/07/14 01:22:32;;;;;;;11.86;9.26;;;;;;;25.61;55.52;99368.75;376652;104;2070924;-74
2021/07/14 01:24:02;;;;;;;14.03;9.33;;;;;;;25.50;55.58;99383.15;376793;106;1969923;-74
2021/07/14 01:25:53;;;;;;;11.54;8.81;;;;;;;25.55;55.72;99371.97;337010;106;2265040;-74
2021/07/14 01:27:13;;;;;;;13.66;9.18;;;;;;;25.42;55.74;99377.22;350246;108;1962957;-74
2021/07/14 01:28:33;;;;;;;13.64;9.61;;;;;;;25.52;55.98;99378.94;392379;104;1986174;-73
2021/07/14 01:29:54;;;;;;;13.22;8.83;;;;;;;25.38;55.80;99372.65;374050;107;1961973;-73
2021/07/14 01:31:21;;;;;;;13.07;9.34;;;;;;;25.41;55.93;99377.55;370226;108;1962038;-73
2021/07/14 01:32:35;;;;;;;13.29;9.37;;;;;;;25.51;55.94;99369.02;382908;103;1986909;-73
2021/07/14 01:33:42;;;;;;;13.30;9.25;;;;;;;25.40;55.95;99373.97;372723;106;1963066;-74
2021/07/14 01:34:58;;;;;;;12.83;9.41;;;;;;;25.35;56.02;99368.55;312742;108;2553044;-74
2021/07/14 01:36:13;;;;;;;12.92;9.21;;;;;;;25.44;56.10;99369.44;395881;104;1986033;-74
2021/07/14 01:37:22;;;;;;;11.49;8.85;;;;;;;25.31;56.02;99367.53;335847;107;2735044;-73
2021/07/14 01:38:37;;;;;;;12.44;9.13;;;;;;;25.42;56.30;99370.88;361916;104;2595975;-72
2021/07/14 01:39:45;;;;;;;13.89;9.60;;;;;;;25.32;56.12;99373.88;372115;107;1961883;-73
2021/07/14 01:41:12;;;;;;;14.19;9.32;;;;;;;25.30;56.08;99370.59;368198;107;1964006;-73
2021/07/14 01:42:27;;;;;;;12.59;8.84;;;;;;;25.36;56.14;99375.71;394607;104;1985983;-73
2021/07/14 01:43:36;;;;;;;13.07;9.44;;;;;;;25.21;56.19;99373.28;374342;107;1961977;-74
2021/07/14 01:44:49;;;;;;;17.01;9.50;;;;;;;25.28;56.37;99376.45;389361;104;1987027;-71
2021/07/14 01:45:56;;;;;;;12.55;8.49;;;;;;;25.15;56.45;99374.50;371309;107;1961896;-74
2021/07/14 01:47:22;;;;;;;13.95;9.58;;;;;;;25.13;56.45;99379.52;370687;107;1962059;-72
2021/07/14 01:48:37;;;;;;;15.64;9.73;;;;;;;25.21;56.64;99379.62;349935;101;2275978;-74
2021/07/14 01:49:44;;;;;;;16.93;11.26;;;;;;;25.09;56.61;99379.33;383933;104;1961927;-73
2021/07/14 01:50:57;;;;;;;14.04;10.05;;;;;;;25.16;56.83;99376.97;396293;104;1985904;-74
2021/07/14 01:52:06;;;;;;;12.31;9.41;;;;;;;25.03;56.80;99375.02;373916;107;1963034;-73
2021/07/14 01:53:32;;;;;;;13.00;9.68;;;;;;;25.00;56.91;99381.98;366149;105;2915117;-74
2021/07/14 01:54:40;;;;;;;13.44;10.57;;;;;;;24.96;57.00;99380.97;374722;107;1961954;-72
2021/07/14 01:55:48;;;;;;;15.91;9.97;;;;;;;24.94;57.09;99382.41;367318;108;1962986;-73
2021/07/14 01:57:02;;;;;;;13.42;10.39;;;;;;;24.99;57.54;99379.54;396890;104;1986032;-73
2021/07/14 01:58:09;;;;;;;14.40;9.41;;;;;;;24.85;57.31;99381.47;378233;105;1961912;-74
2021/07/14 01:59:22;;;;;;;14.45;10.33;;;;;;;24.93;57.50;99372.49;390725;104;2083813;-74
2021/07/14 02:00:29;;;;;;;15.36;10.70;;;;;;;24.81;57.54;99383.23;366554;105;2865036;-73
2021/07/14 02:01:53;;;;;;;15.57;10.22;;;;;;;24.76;57.59;99378.63;372699;107;1963976;-74
2021/07/14 02:04:36;;;;;;;12.83;9.97;;;;;;;24.72;57.79;99380.38;350407;112;1961953;-73
2021/07/14 02:05:52;;;;;;;12.33;10.62;;;;;;;24.81;57.88;99378.52;358553;104;2881955;-74
2021/07/14 02:07:16;;;;;;;13.43;10.10;;;;;;;24.66;57.96;99382.39;373125;106;1960825;-73
2021/07/14 02:08:40;;;;;;;13.92;9.68;;;;;;;24.66;58.02;99379.63;372250;107;1962013;-74
2021/07/14 02:09:54;;;;;;;15.03;10.65;;;;;;;24.76;58.19;99381.38;317597;106;2436025;-75
2021/07/14 02:11:02;;;;;;;15.65;10.15;;;;;;;24.64;58.25;99383.86;363850;110;1968976;-73
2021/07/14 02:12:18;;;;;;;13.70;10.03;;;;;;;24.72;58.35;99381.19;394383;104;2072995;-73
2021/07/14 02:13:53;;;;;;;14.15;10.39;;;;;;;24.69;58.51;99383.73;388540;105;1987073;-74
2021/07/14 02:15:10;;;;;;;14.08;9.41;;;;;;;24.57;58.51;99385.06;357424;108;2958036;-74
2021/07/14 02:16:24;;;;;;;16.15;9.93;;;;;;;24.69;58.57;99381.81;393543;104;1986892;-73
2021/07/14 02:17:37;;;;;;;14.03;9.33;;;;;;;24.62;58.71;99386.09;331325;107;2806029;-73
2021/07/14 02:18:59;;;;;;;12.29;9.59;;;;;;;24.76;58.48;99381.38;391695;106;1986030;-75
2021/07/14 02:20:13;;;;;;;14.74;9.66;;;;;;;24.66;58.41;99385.16;368490;107;1962050;-73
2021/07/14 02:21:37;;;;;;;13.34;10.21;;;;;;;24.69;58.37;99390.09;349515;110;1961974;-75
2021/07/14 02:22:52;;;;;;;15.61;9.67;;;;;;;24.88;58.27;99383.65;396709;104;1986989;-73
2021/07/14 02:23:58;;;;;;;13.82;9.47;;;;;;;24.81;58.18;99383.23;336461;105;2793054;-73
2021/07/14 02:25:11;;;;;;;13.44;10.24;;;;;;;24.99;58.10;99380.35;386400;106;1986145;-73
2021/07/14 02:26:18;;;;;;;12.22;9.80;;;;;;;24.94;58.00;99390.70;357299;109;2889789;-72
2021/07/14 02:27:42;;;;;;;12.56;9.22;;;;;;;25.00;57.87;99381.98;364393;110;1960878;-74
2021/07/14 02:28:55;;;;;;;11.49;9.59;;;;;;;25.23;57.57;99390.38;340057;104;2489970;-73
2021/07/14 02:30:00;;;;;;;13.01;9.67;;;;;;;25.13;57.39;99387.80;340206;106;2018988;-73
2021/07/14 02:31:12;;;;;;;14.96;9.68;;;;;;;25.27;57.40;99390.57;386195;106;1986956;-73
2021/07/14 02:32:20;;;;;;;12.09;9.39;;;;;;;25.18;57.37;99393.26;367539;109;1962078;-73
2021/07/14 02:33:43;;;;;;;13.07;9.79;;;;;;;25.21;57.24;99387.91;368927;109;1962084;-73
2021/07/14 02:34:56;;;;;;;13.86;9.69;;;;;;;25.33;57.08;99387.40;387567;106;1986130;-74
2021/07/14 02:36:05;;;;;;;15.30;9.51;;;;;;;25.21;57.10;99390.68;324157;109;2788990;-74
2021/07/14 02:37:54;;;;;;;15.96;9.78;;;;;;;25.33;57.04;99383.82;351233;106;2658994;-73
2021/07/14 02:39:02;;;;;;;12.37;9.26;;;;;;;25.20;57.20;99389.05;367888;109;1962040;-74
2021/07/14 02:40:32;;;;;;;14.63;9.98;;;;;;;25.30;57.25;99382.49;333123;104;2508064;-74
2021/07/14 02:41:45;;;;;;;19.28;9.59;;;;;;;25.17;57.11;99386.91;368490;108;1962037;-73
2021/07/14 02:43:09;;;;;;;12.91;9.87;;;;;;;25.18;57.12;99391.30;371124;108;1962043;-73
2021/07/14 02:44:24;;;;;;;13.57;9.37;;;;;;;25.18;57.33;99390.49;393374;104;1987059;-74
2021/07/14 02:45:32;;;;;;;11.57;9.59;;;;;;;25.05;57.38;99392.11;368618;109;1963013;-74
2021/07/14 02:46:49;;;;;;;12.89;9.31;;;;;;;25.18;57.40;99394.07;392603;104;1985989;-73
2021/07/14 02:47:59;;;;;;;13.64;9.79;;;;;;;25.04;57.44;99387.72;372288;107;1961942;-74
2021/07/14 02:49:07;;;;;;;13.87;9.27;;;;;;;25.06;57.44;99395.69;373504;107;1962028;-74
2021/07/14 02:50:25;;;;;;;14.60;9.38;;;;;;;25.15;57.52;99396.61;385929;106;1987026;-72
2021/07/14 02:51:33;;;;;;;13.94;9.42;;;;;;;25.04;57.52;99406.25;367183;109;1961934;-75
2021/07/14 02:52:48;;;;;;;14.31;9.87;;;;;;;25.16;57.59;99407.37;396688;104;1986122;-76
2021/07/14 02:53:56;;;;;;;11.99;9.84;;;;;;;25.04;57.53;99401.55;362162;105;2849013;-73
2021/07/14 02:55:22;;;;;;;14.02;9.34;;;;;;;25.07;57.50;99411.98;343544;105;2041854;-74
2021/07/14 02:56:37;;;;;;;13.52;10.22;;;;;;;25.16;57.50;99407.37;397368;104;1985818;-74
2021/07/14 02:57:44;;;;;;;14.90;9.51;;;;;;;25.01;57.52;99414.03;383702;105;1961848;-74
2021/07/14 03:00:18;;;;;;;11.62;8.91;;;;;;;25.08;58.04;99408.08;334834;106;2518964;-73
2021/07/14 03:01:26;;;;;;;14.17;9.78;;;;;;;24.98;57.79;99408.28;363423;110;1962890;-73
2021/07/14 03:02:40;;;;;;;13.83;9.59;;;;;;;25.14;57.88;99411.55;387776;104;1985948;-74
2021/07/14 03:03:49;;;;;;;15.61;9.61;;;;;;;25.07;57.66;99408.40;382411;105;1962005;-72
2021/07/14 03:05:13;;;;;;;15.49;10.33;;;;;;;25.08;57.56;99405.31;376431;105;1961915;-73
2021/07/14 03:06:32;;;;;;;12.11;9.04;;;;;;;25.18;57.57;99409.84;394662;104;1985968;-75
2021/07/14 03:07:38;;;;;;;;;;;;;;;25.06;57.57;99401.22;376336;107;1960953;-73
2021/07/14 03:08:52;;;;;;;11.16;8.90;;;;;;;25.23;57.58;99404.20;337533;104;2503896;-74
2021/07/14 03:09:59;;;;;;;19.45;10.99;;;;;;;25.08;57.68;99408.08;371397;106;1963066;-74
2021/07/14 03:11:05;;;;;;;13.38;9.71;;;;;;;25.18;57.62;99407.89;371637;109;1962003;-74
2021/07/14 03:12:19;;;;;;;14.98;10.38;;;;;;;25.35;57.43;99414.72;375576;104;1975000;-73
2021/07/14 03:13:27;;;;;;;13.11;9.64;;;;;;;25.26;57.38;99405.53;378582;105;1970010;-74
2021/07/14 03:14:36;;;;;;;13.49;9.89;;;;;;;25.31;57.40;99411.77;377989;106;1963059;-73
2021/07/14 03:15:50;;;;;;;15.19;10.16;;;;;;;25.46;57.40;99407.86;357695;104;2120000;-73
2021/07/14 03:16:56;;;;;;;15.43;10.12;;;;;;;25.37;57.23;99413.28;373749;105;1961936;-73
2021/07/14 03:18:04;;;;;;;14.32;9.96;;;;;;;25.40;57.17;99406.31;373939;107;1963979;-74
2021/07/14 03:19:17;;;;;;;13.61;9.48;;;;;;;25.54;57.16;99412.64;387234;106;1964987;-72
2021/07/14 03:20:24;;;;;;;17.11;9.78;;;;;;;25.45;57.06;99407.02;364515;108;1961942;-74
2021/07/14 03:21:36;;;;;;;13.88;10.37;;;;;;;25.59;57.01;99411.69;387514;104;1973120;-71
2021/07/14 03:22:44;;;;;;;14.79;11.16;;;;;;;25.48;57.00;99405.58;378767;107;1961994;-74
2021/07/14 03:24:09;;;;;;;14.98;10.24;;;;;;;25.49;56.96;99411.95;378712;105;1961896;-73
2021/07/14 03:25:22;;;;;;;15.09;9.73;;;;;;;25.63;56.92;99405.23;351294;104;2795930;-73
2021/07/14 03:26:31;;;;;;;14.12;11.07;;;;;;;25.55;56.93;99402.39;374961;107;1964001;-73
2021/07/14 03:27:46;;;;;;;14.03;10.64;;;;;;;25.76;56.80;99408.27;386078;106;1986019;-75
2021/07/14 03:28:53;;;;;;;15.99;10.18;;;;;;;25.73;56.65;99412.48;367725;109;1962917;-74
2021/07/14 03:30:26;;;;;;;14.44;10.53;;;;;;;25.98;56.34;99413.83;391649;103;2072012;-74
2021/07/14 03:31:32;;;;;;;13.13;10.16;;;;;;;25.96;56.13;99415.27;377680;107;1961784;-72
2021/07/14 03:32:55;;;;;;;15.55;9.87;;;;;;;26.03;55.95;99412.89;354829;107;1960981;-73
2021/07/14 03:34:08;;;;;;;19.28;11.08;;;;;;;26.26;55.82;99408.16;394019;104;1962009;-72
2021/07/14 03:35:15;;;;;;;15.25;10.41;;;;;;;26.22;55.63;99409.92;375671;107;1970041;-74
2021/07/14 03:36:28;;;;;;;15.84;10.72;;;;;;;26.41;55.46;99410.54;395120;104;1986040;-74
2021/07/14 03:37:35;;;;;;;15.10;10.41;;;;;;;26.32;55.33;99410.47;373957;107;1961809;-73
2021/07/14 03:38:48;;;;;;;14.82;10.63;;;;;;;26.49;55.22;99412.53;356261;104;2139875;-73
2021/07/14 03:39:58;;;;;;;16.83;10.91;;;;;;;26.43;55.04;99416.55;374857;106;1961888;-73
2021/07/14 03:41:22;;;;;;;14.39;10.09;;;;;;;26.47;54.89;99409.26;375576;105;1961855;-73
2021/07/14 03:42:41;;;;;;;15.79;10.29;;;;;;;26.63;54.55;99414.42;388915;106;1985987;-74
2021/07/14 03:43:47;;;;;;;15.94;10.25;;;;;;;26.56;54.45;99414.86;372697;107;1966953;-74
2021/07/14 03:44:53;;;;;;;14.71;10.96;;;;;;;26.59;54.37;99419.77;367488;107;1961029;-73
2021/07/14 03:46:09;;;;;;;24.18;11.94;;;;;;;26.72;54.13;99418.03;357748;104;2662071;-73
2021/07/14 03:47:17;;;;;;;15.73;11.75;;;;;;;26.64;54.29;99416.05;377444;106;1969902;-72
2021/07/14 03:48:32;;;;;;;13.77;10.21;;;;;;;26.79;54.11;99418.40;395848;104;1985981;-73
2021/07/14 03:49:39;;;;;;;21.81;11.68;;;;;;;26.73;54.04;99417.73;374990;107;1961922;-73
2021/07/14 03:51:04;;;;;;;16.53;10.89;;;;;;;26.77;54.01;99415.13;353706;107;1962087;-73
2021/07/14 03:52:19;;;;;;;16.05;11.04;;;;;;;26.93;53.92;99413.55;394361;104;1971935;-73
2021/07/14 03:53:24;;;;;;;15.23;11.58;;;;;;;26.85;53.80;99416.30;376997;107;1962817;-75
2021/07/14 03:54:38;;;;;;;13.56;10.69;;;;;;;27.00;53.81;99413.09;395996;104;1986040;-73
2021/07/14 03:55:46;;;;;;;14.20;10.43;;;;;;;26.93;53.69;99416.31;321991;109;2887993;-73
2021/07/14 03:57:10;;;;;;;14.81;11.52;;;;;;;26.96;53.58;99414.86;325303;107;2842933;-73
2021/07/14 03:58:24;;;;;;;14.56;10.53;;;;;;;27.12;53.42;99420.78;388839;106;1965027;-74
2021/07/14 03:59:31;;;;;;;13.20;10.56;;;;;;;27.03;53.30;99420.77;363813;107;1962058;-73
2021/07/14 04:00:45;;;;;;;14.10;10.83;;;;;;;27.15;53.05;99418.20;388613;106;1964995;-73
2021/07/14 04:01:51;;;;;;;13.36;9.91;;;;;;;27.09;52.97;99421.42;369513;108;1964914;-72
2021/07/14 04:03:25;;;;;;;14.40;10.17;;;;;;;27.13;52.88;99422.43;367915;109;1962018;-73
2021/07/14 04:04:39;;;;;;;14.22;11.19;;;;;;;27.21;52.94;99418.08;391360;104;2072994;-73
2021/07/14 04:05:46;;;;;;;13.52;10.20;;;;;;;27.11;53.02;99419.16;316372;107;2266020;-71
2021/07/14 04:07:02;;;;;;;12.78;9.78;;;;;;;27.21;53.18;99416.12;392749;104;1985850;-73
2021/07/14 04:08:08;;;;;;;15.04;10.75;;;;;;;27.13;53.15;99419.66;374568;105;1961988;-73
2021/07/14 04:09:31;;;;;;;17.63;10.11;;;;;;;27.12;53.17;99420.78;344504;105;2041989;-74
2021/07/14 04:10:46;;;;;;;11.83;9.02;;;;;;;27.18;53.35;99423.13;393514;104;1987012;-73
2021/07/14 04:11:58;;;;;;;17.44;10.12;;;;;;;27.10;53.32;99421.13;336100;106;2691032;-75
2021/07/14 04:13:04;;;;;;;14.93;10.01;;;;;;;27.09;53.39;99415.88;374813;107;1963894;-75
2021/07/14 04:14:16;;;;;;;16.27;10.21;;;;;;;27.22;53.34;99420.52;397994;104;1987013;-74
2021/07/14 04:15:21;;;;;;;13.41;9.69;;;;;;;27.12;53.38;99421.59;373787;107;1961980;-73
2021/07/14 04:16:33;;;;;;;13.86;9.96;;;;;;;27.28;53.34;99427.53;361998;108;2843033;-74
2021/07/14 04:17:40;;;;;;;11.79;8.87;;;;;;;27.21;53.33;99424.44;331280;111;2063879;-74
2021/07/14 04:19:03;;;;;;;15.24;9.35;;;;;;;27.19;53.27;99424.75;360239;111;1962126;-75
2021/07/14 04:20:11;;;;;;;12.36;9.32;;;;;;;27.22;53.31;99431.61;360022;110;1962035;-73
2021/07/14 04:21:23;;;;;;;13.99;10.04;;;;;;;27.32;53.42;99433.27;400934;104;1987004;-75
2021/07/14 04:22:29;;;;;;;15.72;9.61;;;;;;;27.24;53.54;99429.33;383144;105;1962040;-76
2021/07/14 04:23:34;;;;;;;14.06;9.66;;;;;;;27.32;53.34;99434.08;381486;105;1962017;-75
2021/07/14 04:24:47;;;;;;;14.61;10.31;;;;;;;27.50;53.00;99434.93;401659;101;1985922;-74
2021/07/14 04:25:53;;;;;;;13.13;8.87;;;;;;;27.44;53.05;99432.62;334214;105;2871041;-73
2021/07/14 04:27:00;;;;;;;15.72;9.96;;;;;;;27.49;52.80;99435.24;364040;107;1962034;-74
2021/07/14 04:28:12;;;;;;;15.13;9.82;;;;;;;27.62;52.58;99431.50;393223;103;1972935;-74
2021/07/14 04:29:17;;;;;;;11.14;8.47;;;;;;;27.51;52.68;99438.52;374446;107;1964062;-75
2021/07/14 04:30:30;;;;;;;12.22;9.27;;;;;;;27.63;52.72;99430.37;339277;106;2867021;-74
2021/07/14 04:31:37;;;;;;;14.14;9.17;;;;;;;27.52;52.47;99437.36;316982;109;2252002;-73
2021/07/14 04:33:00;;;;;;;15.89;10.45;;;;;;;27.51;52.78;99428.23;367358;109;1962036;-76
2021/07/14 04:34:06;;;;;;;14.76;10.62;;;;;;;27.55;52.88;99434.78;366925;109;1961945;-75
2021/07/14 04:35:13;;;;;;;16.18;10.88;;;;;;;27.59;52.89;99437.71;326459;108;2644974;-75
2021/07/14 04:36:25;;;;;;;16.24;10.69;;;;;;;27.74;52.94;99434.46;386468;106;1961982;-75
2021/07/14 04:37:30;;;;;;;15.67;11.04;;;;;;;27.67;52.95;99433.31;366080;109;1968959;-74
2021/07/14 04:38:43;;;;;;;15.13;10.61;;;;;;;27.87;52.77;99435.48;391154;103;2072009;-76
2021/07/14 04:39:49;;;;;;;15.28;11.08;;;;;;;27.81;52.57;99437.61;363527;107;2913078;-75
2021/07/14 04:41:12;;;;;;;16.14;9.92;;;;;;;27.84;52.47;99438.91;369574;107;1963913;-76
2021/07/14 04:42:25;;;;;;;14.18;10.77;;;;;;;28.02;52.31;99437.77;393034;104;1987010;-73
2021/07/14 04:43:31;;;;;;;15.33;9.79;;;;;;;27.96;52.19;99432.69;374065;107;1963054;-74
2021/07/14 04:46:04;;;;;;;14.98;9.84;;;;;;;28.17;51.95;99436.42;393393;104;1986058;-75
2021/07/14 04:47:29;;;;;;;17.14;11.09;;;;;;;28.12;51.88;99439.36;334361;107;2743944;-73
2021/07/14 04:48:44;;;;;;;15.96;11.81;;;;;;;28.32;51.77;99434.29;360140;104;2869907;-74
2021/07/14 04:49:49;;;;;;;14.87;10.39;;;;;;;28.24;51.64;99433.16;342723;105;2076010;-74
2021/07/14 04:51:13;;;;;;;16.24;10.44;;;;;;;28.28;51.46;99431.34;371644;107;1962024;-74
2021/07/14 04:52:26;;;;;;;15.29;11.14;;;;;;;28.47;51.09;99434.61;326798;106;2582070;-75
2021/07/14 04:53:31;;;;;;;12.53;9.23;;;;;;;28.42;50.92;99436.69;311905;107;2314061;-74
2021/07/14 04:54:43;;;;;;;16.48;10.49;;;;;;;28.52;50.67;99436.37;382406;105;2072021;-74
2021/07/14 04:55:59;;;;;;;14.28;10.12;;;;;;;28.52;50.46;99433.59;396686;104;1987012;-74
2021/07/14 04:57:23;;;;;;;13.31;8.97;;;;;;;28.43;50.43;99455.85;342860;105;2708028;-75
2021/07/14 04:58:29;;;;;;;13.96;10.27;;;;;;;28.51;50.07;99440.31;322836;105;2312003;-74
2021/07/14 04:59:41;;;;;;;14.17;9.74;;;;;;;28.67;49.87;99438.62;391423;104;2072862;-75
2021/07/14 05:00:46;;;;;;;14.14;9.27;;;;;;;28.60;49.73;99434.72;374845;106;1964043;-75
2021/07/14 05:01:58;;;;;;;11.56;8.79;;;;;;;28.79;49.64;99437.09;395705;104;1985928;-75
2021/07/14 05:03:04;;;;;;;10.87;8.46;;;;;;;28.74;49.53;99437.28;375731;107;1962004;-74
2021/07/14 05:04:09;;;;;;;12.04;7.54;;;;;;;28.78;49.12;99439.06;374877;107;1962005;-75
2021/07/14 05:05:16;;;;;;;10.13;8.19;;;;;;;28.82;48.77;99439.23;377004;106;1962897;-75
2021/07/14 05:06:28;;;;;;;11.41;7.70;;;;;;;28.95;48.29;99438.20;396516;104;1984842;-74
2021/07/14 05:07:33;;;;;;;11.40;7.77;;;;;;;28.86;48.24;99442.96;364461;107;1961925;-74
2021/07/14 05:08:39;;;;;;;10.26;8.06;;;;;;;28.88;47.85;99446.23;333624;107;2165941;-74
2021/07/14 05:09:51;;;;;;;11.41;8.10;;;;;;;29.03;47.61;99445.68;392432;104;1962022;-74
2021/07/14 05:10:57;;;;;;;10.86;7.36;;;;;;;28.94;47.41;99444.89;369578;107;1968972;-75
2021/07/14 05:12:09;;;;;;;11.28;8.30;;;;;;;29.04;47.53;99446.48;381440;104;3065860;-75
2021/07/14 05:13:17;;;;;;;11.76;8.05;;;;;;;28.52;47.62;99375.23;373809;106;1961845;-75
2021/07/14 05:14:29;;;;;;;11.18;7.76;;;;;;;29.12;47.57;99446.47;394324;104;1987067;-73
2021/07/14 05:15:35;;;;;;;11.18;7.13;;;;;;;29.06;47.29;99449.79;374797;105;1962065;-74
2021/07/14 05:16:47;;;;;;;11.61;8.01;;;;;;;29.26;47.24;99442.63;374351;106;2970964;-75
2021/07/14 05:17:54;;;;;;;12.48;8.15;;;;;;;29.18;46.98;99447.09;360543;108;1963060;-75
2021/07/14 05:19:18;;;;;;;11.94;7.45;;;;;;;29.23;47.07;99446.90;364938;108;1962048;-75
2021/07/14 05:20:30;;;;;;;13.13;7.51;;;;;;;29.41;46.53;99447.61;394777;104;1965982;-75
2021/07/14 05:21:35;;;;;;;12.82;8.70;;;;;;;29.29;46.68;99442.77;367575;105;1962062;-75
2021/07/14 05:22:48;;;;;;;14.33;8.45;;;;;;;29.39;46.57;99441.56;403739;101;1985978;-75
2021/07/14 05:23:53;;;;;;;10.65;7.62;;;;;;;29.23;46.73;99444.12;382905;105;1962071;-75
2021/07/14 05:25:07;;;;;;;13.68;8.51;;;;;;;29.26;46.72;99446.22;387960;104;1987086;-75
2021/07/14 05:26:13;;;;;;;10.76;8.12;;;;;;;29.14;46.79;99452.52;352885;107;1964058;-75
2021/07/14 05:27:36;;;;;;;13.94;8.50;;;;;;;29.14;46.64;99449.73;368301;107;1962006;-74
2021/07/14 05:28:50;;;;;;;12.92;9.23;;;;;;;29.21;46.79;99446.41;352655;101;2295843;-74
2021/07/14 05:29:55;;;;;;;12.01;8.12;;;;;;;29.09;46.70;99443.55;361863;104;1962127;-75
2021/07/14 05:31:07;;;;;;;17.33;8.68;;;;;;;29.16;47.12;99443.81;390865;104;2072852;-75
2021/07/14 05:32:12;;;;;;;20.86;9.00;;;;;;;29.04;47.35;99450.11;375541;106;1969860;-75
2021/07/14 05:33:37;;;;;;;13.50;7.53;;;;;;;29.04;47.25;99449.27;343472;107;2858003;-76
2021/07/14 05:34:48;;;;;;;12.69;7.24;;;;;;;29.17;46.25;99447.44;390847;106;1965025;-75
2021/07/14 05:35:54;;;;;;;11.89;7.37;;;;;;;29.04;46.10;99450.11;366475;109;1961998;-75
2021/07/14 05:37:07;;;;;;;14.05;8.02;;;;;;;29.14;45.69;99449.73;396052;104;1966038;-76
2021/07/14 05:38:19;;;;;;;13.81;8.26;;;;;;;29.03;45.71;99448.46;379891;105;1961893;-74
2021/07/14 05:39:31;;;;;;;14.16;7.24;;;;;;;29.15;45.56;99450.55;397588;104;1986933;-74
2021/07/14 05:40:37;;;;;;;14.18;10.27;;;;;;;29.05;45.98;99448.14;374757;107;1961996;-75
2021/07/14 05:41:50;;;;;;;13.85;7.71;;;;;;;29.20;45.93;99446.77;393549;104;1987083;-75
2021/07/14 05:42:56;;;;;;;11.84;8.12;;;;;;;29.10;45.64;99448.76;325257;107;2887933;-75
2021/07/14 05:44:09;;;;;;;15.88;8.12;;;;;;;29.23;45.54;99443.30;390987;106;1986039;-74